Time;durP1;ratioP1;P1;durP2;ratioP2;P2;SDS_P1;SDS_P2;PMS_P1;PMS_P2;Temp;Humidity;BMP_temperature;BMP_pressure;BME280_temperature;BME280_humidity;BME280_pressure;Samples;Min_cycle;Max_cycle;Signal;HPM_P1;HPM_P2
2023/03/24 00:00:15;;;;;;;5.78;2.40;;;13.00;99.90;;;;;;5138233;27;20095;-59
2023/03/24 00:02:42;;;;;;;4.07;2.33;;;13.00;99.90;;;;;;5137612;27;20023;-59
2023/03/24 00:05:10;;;;;;;3.38;2.38;;;13.00;99.90;;;;;;5138230;27;20019;-60
2023/03/24 00:07:37;;;;;;;4.13;2.67;;;13.10;99.90;;;;;;5137341;27;20038;-59
2023/03/24 00:10:05;;;;;;;4.13;2.40;;;13.10;99.90;;;;;;5137776;27;20311;-59
2023/03/24 00:12:32;;;;;;;5.20;2.10;;;13.10;99.90;;;;;;5137470;27;20096;-58
2023/03/24 00:15:01;;;;;;;3.33;2.25;;;13.10;99.90;;;;;;5137211;27;20408;-60
2023/03/24 00:17:28;;;;;;;4.10;2.25;;;13.10;99.90;;;;;;5138204;27;20035;-60
2023/03/24 00:19:54;;;;;;;4.68;2.50;;;13.00;99.90;;;;;;5137203;27;20027;-59
2023/03/24 00:22:20;;;;;;;6.28;2.83;;;13.00;99.90;;;;;;5137234;27;20028;-59
2023/03/24 00:24:46;;;;;;;3.47;2.47;;;13.00;99.90;;;;;;5137054;27;20042;-58
2023/03/24 00:27:14;;;;;;;6.60;2.83;;;12.90;99.90;;;;;;5137896;27;20139;-59
2023/03/24 00:29:40;;;;;;;6.88;2.63;;;13.00;99.90;;;;;;5138124;27;20034;-59
2023/03/24 00:32:07;;;;;;;3.30;2.35;;;13.00;99.90;;;;;;5119857;27;20088;-59
2023/03/24 00:34:37;;;;;;;4.80;2.78;;;12.90;99.90;;;;;;5136932;27;20059;-57
2023/03/24 00:37:06;;;;;;;3.50;2.25;;;12.90;99.90;;;;;;5136971;28;20311;-58
2023/03/24 00:39:32;;;;;;;4.00;2.40;;;12.90;99.90;;;;;;5137735;27;20052;-58
2023/03/24 00:42:00;;;;;;;3.58;2.90;;;12.90;99.90;;;;;;5137777;28;20047;-58
2023/03/24 00:44:26;;;;;;;6.15;2.60;;;12.80;99.90;;;;;;5137063;28;20039;-58
2023/03/24 00:46:55;;;;;;;4.50;2.75;;;12.80;99.90;;;;;;5138197;28;20035;-59
2023/03/24 00:49:40;;;;;;;4.43;2.60;;;12.80;99.90;;;;;;5120309;28;20031;-59
2023/03/24 00:52:14;;;;;;;2.83;2.33;;;12.80;99.90;;;;;;5137793;27;20055;-59
2023/03/24 00:54:41;;;;;;;5.18;2.78;;;12.80;99.90;;;;;;5137037;28;20035;-59
2023/03/24 00:57:07;;;;;;;7.25;2.75;;;12.90;99.90;;;;;;5137686;27;20032;-60
2023/03/24 00:59:41;;;;;;;5.03;3.00;;;12.90;99.90;;;;;;5136996;28;20050;-59
2023/03/24 01:02:11;;;;;;;4.63;2.83;;;12.90;99.90;;;;;;5119805;28;20050;-59
2023/03/24 01:04:38;;;;;;;8.02;3.45;;;12.90;99.90;;;;;;5137225;28;20038;-58
2023/03/24 01:07:06;;;;;;;5.93;2.80;;;12.90;99.90;;;;;;5137568;28;20100;-61
2023/03/24 01:09:35;;;;;;;6.65;3.38;;;12.90;99.90;;;;;;5137659;27;20304;-58
2023/03/24 01:12:03;;;;;;;5.35;3.30;;;12.90;99.90;;;;;;5119742;28;20037;-59
2023/03/24 01:14:32;;;;;;;5.78;3.40;;;12.90;99.90;;;;;;5136806;28;20334;-58
2023/03/24 01:16:59;;;;;;;5.50;2.83;;;13.00;99.90;;;;;;5137749;27;20035;-59
2023/03/24 01:19:26;;;;;;;5.97;3.13;;;13.00;99.90;;;;;;5119556;28;20038;-57
2023/03/24 01:21:53;;;;;;;5.45;3.13;;;13.00;99.90;;;;;;5137600;27;20300;-58
2023/03/24 01:24:20;;;;;;;6.22;3.22;;;13.10;99.90;;;;;;5137023;27;20303;-58
2023/03/24 01:26:47;;;;;;;7.32;3.63;;;13.10;99.90;;;;;;5141347;27;20110;-59
2023/03/24 01:29:12;;;;;;;6.43;3.40;;;13.00;99.90;;;;;;5141350;27;20276;-58
2023/03/24 01:31:38;;;;;;;7.50;3.58;;;12.90;99.90;;;;;;5140415;27;20097;-59
2023/03/24 01:34:04;;;;;;;5.78;3.25;;;12.80;99.90;;;;;;5141126;27;20035;-59
2023/03/24 01:36:30;;;;;;;4.25;2.90;;;12.80;99.90;;;;;;5141137;27;20031;-59
2023/03/24 01:38:59;;;;;;;5.53;3.28;;;12.90;99.90;;;;;;5140994;27;20024;-60
2023/03/24 01:41:36;;;;;;;6.38;3.70;;;12.90;99.90;;;;;;5140933;27;20427;-58
2023/03/24 01:44:33;;;;;;;5.75;3.17;;;12.90;99.90;;;;;;5141309;27;20027;-60
2023/03/24 01:47:01;;;;;;;3.75;2.97;;;12.90;99.90;;;;;;5141233;27;20403;-60
2023/03/24 01:49:50;;;;;;;6.78;3.58;;;12.90;99.90;;;;;;5106243;27;20059;-59
2023/03/24 01:52:22;;;;;;;6.07;3.58;;;12.80;99.90;;;;;;5125986;27;20039;-59
2023/03/24 01:55:00;;;;;;;5.40;3.38;;;12.80;99.90;;;;;;5140846;27;20385;-61
2023/03/24 01:57:32;;;;;;;5.90;3.47;;;12.80;99.90;;;;;;5139950;27;20324;-60
2023/03/24 02:00:03;;;;;;;6.63;3.28;;;12.80;99.90;;;;;;5140727;27;20023;-59
2023/03/24 02:03:14;;;;;;;4.82;3.38;;;12.80;99.90;;;;;;5140514;27;20050;-59
2023/03/24 02:05:50;;;;;;;3.10;2.40;;;12.90;99.90;;;;;;5139872;27;20026;-55
2023/03/24 02:08:30;;;;;;;4.75;2.20;;;12.80;99.90;;;;;;5139945;27;20046;-58
2023/03/24 02:10:57;;;;;;;4.65;2.15;;;12.70;99.90;;;;;;5140612;27;20315;-58
2023/03/24 02:13:30;;;;;;;2.70;2.15;;;12.60;99.90;;;;;;5139727;27;20357;-56
2023/03/24 02:16:20;;;;;;;3.05;2.38;;;12.60;99.90;;;;;;5140226;27;20125;-58
2023/03/24 02:19:14;;;;;;;2.78;2.30;;;12.60;99.90;;;;;;5139545;27;20027;-59
2023/03/24 02:22:02;;;;;;;3.58;1.58;;;12.50;99.90;;;;;;5139581;27;20027;-58
2023/03/24 02:24:28;;;;;;;1.67;1.30;;;12.40;99.90;;;;;;5122336;27;20114;-58
2023/03/24 02:27:30;;;;;;;2.15;1.45;;;12.30;99.90;;;;;;5140147;27;20035;-59
2023/03/24 02:30:09;;;;;;;2.47;0.88;;;12.30;99.90;;;;;;5139375;27;20447;-59
2023/03/24 02:33:03;;;;;;;1.90;0.82;;;12.10;99.90;;;;;;5139598;27;20031;-58
2023/03/24 02:35:47;;;;;;;2.88;0.98;;;11.90;99.90;;;;;;5139744;27;20069;-60
2023/03/24 02:38:25;;;;;;;3.75;0.68;;;11.80;99.90;;;;;;5139936;27;20027;-60
2023/03/24 02:41:13;;;;;;;3.17;0.93;;;11.70;99.90;;;;;;5121916;27;20050;-61
2023/03/24 02:44:17;;;;;;;2.80;0.80;;;11.70;99.90;;;;;;5139183;27;20027;-60
2023/03/24 02:47:22;;;;;;;2.67;0.90;;;11.70;99.90;;;;;;5139230;27;20034;-61
2023/03/24 02:50:04;;;;;;;3.05;0.80;;;11.80;99.90;;;;;;5140348;27;20457;-60
2023/03/24 02:52:32;;;;;;;7.95;0.93;;;11.70;99.90;;;;;;5139768;27;20079;-60
2023/03/24 02:55:13;;;;;;;5.18;0.90;;;11.60;99.90;;;;;;5121767;27;20035;-59
2023/03/24 02:57:57;;;;;;;4.35;1.15;;;11.70;99.90;;;;;;5139575;27;20054;-60
2023/03/24 03:00:47;;;;;;;4.70;0.95;;;11.70;99.90;;;;;;5138787;27;20337;-58
2023/03/24 03:03:47;;;;;;;;;;;11.80;99.90;;;;;;5126239;27;20324;-59
2023/03/24 03:06:22;;;;;;;5.60;1.10;;;11.80;99.90;;;;;;5138566;27;20006;-59
2023/03/24 03:08:50;;;;;;;4.97;1.00;;;11.70;99.90;;;;;;5139313;27;20049;-57
2023/03/24 03:11:17;;;;;;;5.20;0.80;;;11.50;99.90;;;;;;5139254;27;20031;-60
2023/03/24 03:14:05;;;;;;;4.18;1.15;;;11.50;99.90;;;;;;5138532;27;20359;-60
2023/03/24 03:16:45;;;;;;;7.72;1.20;;;11.40;99.90;;;;;;5139080;27;20034;-59
2023/03/24 03:19:21;;;;;;;5.00;1.00;;;11.40;99.90;;;;;;5139172;27;20027;-59
2023/03/24 03:21:49;;;;;;;2.85;0.80;;;11.40;99.90;;;;;;5121570;27;20341;-57
2023/03/24 03:24:28;;;;;;;4.78;1.10;;;11.40;99.90;;;;;;5138138;27;20299;-61
2023/03/24 03:27:01;;;;;;;8.68;1.17;;;11.30;99.90;;;;;;5138200;27;20037;-59
2023/03/24 03:29:33;;;;;;;4.18;0.90;;;11.40;99.90;;;;;;5138113;27;20383;-60
2023/03/24 03:32:06;;;;;;;6.00;1.00;;;11.50;99.90;;;;;;5138996;27;20055;-59
2023/03/24 03:34:49;;;;;;;4.07;0.95;;;11.50;99.90;;;;;;5138395;27;20334;-60
2023/03/24 03:37:36;;;;;;;3.38;0.85;;;11.40;99.90;;;;;;5138777;27;20027;-58
2023/03/24 03:40:45;;;;;;;5.95;1.27;;;11.40;99.90;;;;;;5138574;27;20276;-59
2023/03/24 03:43:17;;;;;;;6.78;1.13;;;11.50;99.90;;;;;;5059266;28;20032;-59
2023/03/24 03:45:44;;;;;;;8.32;1.77;;;11.40;99.90;;;;;;5131019;27;20316;-59
2023/03/24 03:48:10;;;;;;;6.95;1.60;;;11.50;99.90;;;;;;5137782;27;20031;-60
2023/03/24 03:50:37;;;;;;;4.55;1.20;;;11.50;99.90;;;;;;5137649;27;20027;-60
2023/03/24 03:53:07;;;;;;;7.30;1.42;;;11.50;99.90;;;;;;5137641;27;20126;-58
2023/03/24 03:55:34;;;;;;;5.20;1.30;;;11.40;99.90;;;;;;5138224;27;20027;-58
2023/03/24 03:58:03;;;;;;;6.18;1.17;;;11.40;99.90;;;;;;5120729;27;20041;-60
2023/03/24 04:00:40;;;;;;;5.68;1.33;;;11.40;99.90;;;;;;5137515;27;20110;-60
2023/03/24 04:03:50;;;;;;;9.48;1.38;;;11.50;99.90;;;;;;5124190;27;20039;-59
2023/03/24 04:06:28;;;;;;;6.63;1.20;;;11.60;99.90;;;;;;5137562;27;20033;-60
2023/03/24 04:09:20;;;;;;;7.78;1.52;;;11.60;99.90;;;;;;5137457;27;20118;-60
2023/03/24 04:11:55;;;;;;;7.47;1.27;;;11.60;99.90;;;;;;5137422;27;20047;-60
2023/03/24 04:14:53;;;;;;;5.35;0.98;;;11.40;99.90;;;;;;5138082;27;20107;-59
2023/03/24 04:18:26;;;;;;;8.60;1.60;;;11.40;99.90;;;;;;5137445;27;20054;-59
2023/03/24 04:21:22;;;;;;;9.02;1.10;;;11.30;99.90;;;;;;5137358;27;20031;-59
2023/03/24 04:24:13;;;;;;;9.60;1.30;;;11.40;99.90;;;;;;5137267;27;20037;-60
2023/03/24 04:26:53;;;;;;;10.63;1.50;;;11.40;99.90;;;;;;5137307;27;20069;-58
2023/03/24 04:29:28;;;;;;;6.70;1.38;;;11.30;99.90;;;;;;5138048;27;20039;-58
2023/03/24 04:32:13;;;;;;;8.10;1.42;;;11.30;99.90;;;;;;5138139;27;20463;-59
2023/03/24 04:34:44;;;;;;;9.45;1.48;;;11.20;99.90;;;;;;5137078;27;20060;-58
2023/03/24 04:37:36;;;;;;;5.72;1.73;;;11.20;99.90;;;;;;5137157;27;20047;-57
2023/03/24 04:40:11;;;;;;;11.43;1.65;;;11.10;99.90;;;;;;5136930;28;20027;-59
2023/03/24 04:42:45;;;;;;;8.77;1.73;;;11.10;99.90;;;;;;5138323;28;20110;-57
2023/03/24 04:45:12;;;;;;;8.50;1.65;;;11.00;99.90;;;;;;5137980;27;20032;-58
2023/03/24 04:48:00;;;;;;;8.30;1.60;;;10.90;99.90;;;;;;5137988;28;20131;-57
2023/03/24 04:50:56;;;;;;;9.27;1.75;;;10.90;99.90;;;;;;5137958;28;20193;-58
2023/03/24 04:53:23;;;;;;;9.45;2.20;;;10.80;99.90;;;;;;5119961;28;20046;-57
2023/03/24 04:55:49;;;;;;;6.82;1.70;;;10.80;99.90;;;;;;5137408;28;20051;-58
2023/03/24 04:58:20;;;;;;;9.95;1.77;;;10.90;99.90;;;;;;5137073;27;20031;-58
2023/03/24 05:00:46;;;;;;;11.13;1.95;;;10.90;99.90;;;;;;5140863;27;20019;-58
2023/03/24 05:03:15;;;;;;;9.27;1.80;;;11.00;99.90;;;;;;5141048;27;20030;-58
2023/03/24 05:05:42;;;;;;;13.90;1.95;;;11.00;99.90;;;;;;5141596;27;20023;-58
2023/03/24 05:08:08;;;;;;;12.43;2.20;;;11.00;99.90;;;;;;5123762;27;20038;-59
2023/03/24 05:10:35;;;;;;;10.07;1.73;;;11.20;99.90;;;;;;5140748;27;20031;-58
2023/03/24 05:13:04;;;;;;;12.05;1.95;;;11.10;99.90;;;;;;5140646;27;20046;-58
2023/03/24 05:15:42;;;;;;;10.45;1.85;;;10.90;99.90;;;;;;5140659;27;20057;-58
2023/03/24 05:18:27;;;;;;;10.88;2.17;;;10.70;99.90;;;;;;5142061;27;20054;-58
2023/03/24 05:20:55;;;;;;;9.45;1.73;;;10.70;99.90;;;;;;5123675;27;20034;-59
2023/03/24 05:23:21;;;;;;;13.18;2.25;;;10.60;99.90;;;;;;5140978;27;20273;-59
2023/03/24 05:25:48;;;;;;;10.15;1.90;;;10.50;99.90;;;;;;5140387;27;20027;-58
2023/03/24 05:28:15;;;;;;;18.05;2.40;;;10.50;99.90;;;;;;5140310;27;20312;-58
2023/03/24 05:30:41;;;;;;;8.77;1.60;;;10.50;99.90;;;;;;5140329;27;20038;-58
2023/03/24 05:33:27;;;;;;;13.15;2.17;;;10.40;99.90;;;;;;5140497;27;20045;-57
2023/03/24 05:35:54;;;;;;;14.45;2.53;;;10.40;99.90;;;;;;5140213;27;20285;-60
2023/03/24 05:38:20;;;;;;;13.75;1.90;;;10.30;99.90;;;;;;5123154;27;20118;-58
2023/03/24 05:40:51;;;;;;;16.73;2.25;;;10.30;99.90;;;;;;5139817;27;20071;-58
2023/03/24 05:43:17;;;;;;;12.07;2.10;;;10.30;99.90;;;;;;5139870;27;20039;-59
2023/03/24 05:45:55;;;;;;;14.90;2.20;;;10.30;99.90;;;;;;5139895;27;20043;-58
2023/03/24 05:48:27;;;;;;;10.38;2.10;;;10.30;99.90;;;;;;5124131;27;20047;-58
2023/03/24 05:51:26;;;;;;;15.45;3.00;;;10.30;99.90;;;;;;5124713;27;20071;-58
2023/03/24 05:54:01;;;;;;;15.52;1.83;;;10.40;99.90;;;;;;5139683;27;20031;-58
2023/03/24 05:56:36;;;;;;;19.55;2.15;;;10.50;99.90;;;;;;5124920;27;20042;-58
2023/03/24 05:59:05;;;;;;;9.65;1.95;;;10.50;99.90;;;;;;5139890;27;20396;-58
2023/03/24 06:02:04;;;;;;;14.55;2.08;;;10.40;99.90;;;;;;5095022;27;20068;-59
2023/03/24 06:04:47;;;;;;;15.57;2.28;;;10.40;99.90;;;;;;5139791;27;20327;-58
2023/03/24 06:07:21;;;;;;;16.05;2.28;;;10.30;99.90;;;;;;5140520;27;20042;-59
2023/03/24 06:09:49;;;;;;;11.18;2.33;;;10.30;99.90;;;;;;5139999;27;20038;-60
2023/03/24 06:12:16;;;;;;;8.73;1.58;;;10.30;99.90;;;;;;5122078;27;20031;-59
2023/03/24 06:14:53;;;;;;;7.53;1.55;;;10.40;99.90;;;;;;5139226;27;20035;-58
2023/03/24 06:17:20;;;;;;;14.60;2.33;;;10.40;99.90;;;;;;5138999;27;20042;-56
2023/03/24 06:19:48;;;;;;;9.57;1.70;;;10.40;99.90;;;;;;5139146;27;20257;-57
2023/03/24 06:22:38;;;;;;;13.77;1.98;;;10.40;99.90;;;;;;5139036;27;20039;-58
2023/03/24 06:25:09;;;;;;;12.27;1.90;;;10.30;99.90;;;;;;5139384;27;20120;-58
2023/03/24 06:27:37;;;;;;;10.43;1.73;;;10.30;99.90;;;;;;5139134;27;20023;-59
2023/03/24 06:30:04;;;;;;;13.18;1.88;;;10.30;99.90;;;;;;5122604;27;20055;-59
2023/03/24 06:32:30;;;;;;;17.42;2.80;;;10.30;99.90;;;;;;5139048;27;20035;-59
2023/03/24 06:34:56;;;;;;;9.50;1.73;;;10.30;99.90;;;;;;5138889;27;20131;-59
2023/03/24 06:37:41;;;;;;;8.55;1.58;;;10.40;99.90;;;;;;5138925;27;20035;-59
2023/03/24 06:40:12;;;;;;;11.23;2.60;;;10.50;99.90;;;;;;5122455;27;20055;-59
2023/03/24 06:42:42;;;;;;;12.50;2.10;;;10.50;99.90;;;;;;5138828;27;20385;-60
2023/03/24 06:45:09;;;;;;;12.27;1.90;;;10.50;99.90;;;;;;5140146;27;20136;-59
2023/03/24 06:47:36;;;;;;;10.63;2.05;;;10.60;99.90;;;;;;5104977;27;20290;-59
2023/03/24 06:50:02;;;;;;;13.30;2.25;;;10.80;99.90;;;;;;5138746;27;20315;-59
2023/03/24 06:52:28;;;;;;;14.27;2.28;;;10.90;99.90;;;;;;5139496;27;20276;-59
2023/03/24 06:54:56;;;;;;;8.10;2.35;;;10.80;99.90;;;;;;5138614;27;20083;-60
2023/03/24 06:57:22;;;;;;;8.70;2.10;;;10.70;99.90;;;;;;5121802;27;20039;-59
2023/03/24 07:00:12;;;;;;;10.77;1.90;;;10.70;99.90;;;;;;5139263;27;20031;-58
2023/03/24 07:02:51;;;;;;;11.40;2.15;;;10.70;99.90;;;;;;5138747;27;20046;-59
2023/03/24 07:05:17;;;;;;;7.05;1.83;;;10.80;99.90;;;;;;5121440;27;20038;-59
2023/03/24 07:07:44;;;;;;;13.00;1.95;;;10.90;99.90;;;;;;5138510;27;20055;-61
2023/03/24 07:10:35;;;;;;;8.68;1.73;;;10.90;99.90;;;;;;5128126;27;20051;-57
2023/03/24 07:13:02;;;;;;;14.75;2.65;;;11.20;99.90;;;;;;5138200;27;20027;-58
2023/03/24 07:15:29;;;;;;;11.30;2.55;;;11.20;99.90;;;;;;5138116;27;20035;-58
2023/03/24 07:17:55;;;;;;;11.85;2.17;;;11.20;99.90;;;;;;5121296;27;20034;-59
2023/03/24 07:20:32;;;;;;;14.35;2.40;;;11.20;99.90;;;;;;5138145;27;20054;-59
2023/03/24 07:23:07;;;;;;;9.32;2.25;;;11.20;99.90;;;;;;5090047;27;20035;-58
2023/03/24 07:25:56;;;;;;;11.80;2.00;;;11.30;99.90;;;;;;5139007;27;20035;-59
2023/03/24 07:28:42;;;;;;;9.48;2.10;;;11.50;99.90;;;;;;5124628;27;20285;-58
2023/03/24 07:31:09;;;;;;;10.63;1.90;;;11.60;99.90;;;;;;5138117;27;20023;-58
2023/03/24 07:33:39;;;;;;;12.10;2.03;;;11.40;99.90;;;;;;5138488;27;20388;-58
2023/03/24 07:36:06;;;;;;;9.52;2.10;;;11.50;99.90;;;;;;5138812;27;20349;-59
2023/03/24 07:38:34;;;;;;;12.60;2.53;;;11.60;99.90;;;;;;5138077;27;20019;-58
2023/03/24 07:41:04;;;;;;;11.57;1.75;;;11.70;99.90;;;;;;5138721;27;20047;-60
2023/03/24 07:43:34;;;;;;;9.73;2.15;;;11.60;99.90;;;;;;5137919;27;20303;-59
2023/03/24 07:46:38;;;;;;;13.75;1.88;;;11.60;99.90;;;;;;5124294;27;20031;-59
2023/03/24 07:49:05;;;;;;;11.27;1.83;;;11.60;99.90;;;;;;5139455;27;20110;-58
2023/03/24 07:51:32;;;;;;;13.75;1.98;;;11.70;99.90;;;;;;5138754;27;20031;-58
2023/03/24 07:54:03;;;;;;;12.32;1.88;;;11.80;99.90;;;;;;5138807;27;20070;-58
2023/03/24 07:56:40;;;;;;;13.30;2.17;;;12.00;97.90;;;;;;5137927;27;20399;-57
2023/03/24 07:59:08;;;;;;;9.10;2.10;;;11.80;99.50;;;;;;5120730;27;20319;-57
2023/03/24 08:02:03;;;;;;;14.02;2.00;;;11.70;99.90;;;;;;5123312;27;20273;-57
2023/03/24 08:04:56;;;;;;;16.50;2.33;;;11.50;99.90;;;;;;5106407;27;20042;-58
2023/03/24 08:07:37;;;;;;;10.38;2.05;;;11.50;99.90;;;;;;5137582;27;20431;-58
2023/03/24 08:10:03;;;;;;;12.65;2.33;;;11.70;99.90;;;;;;5138089;27;20082;-57
2023/03/24 08:12:29;;;;;;;10.05;2.10;;;11.60;99.90;;;;;;5137227;27;20038;-58
2023/03/24 08:14:55;;;;;;;9.45;2.03;;;11.60;99.90;;;;;;5137011;27;20031;-58
2023/03/24 08:17:20;;;;;;;10.90;2.00;;;11.70;99.90;;;;;;5137673;27;20051;-59
2023/03/24 08:19:47;;;;;;;12.85;2.30;;;11.80;99.70;;;;;;5137621;27;20031;-58
2023/03/24 08:22:13;;;;;;;9.25;1.63;;;12.00;98.00;;;;;;5137630;27;20059;-58
2023/03/24 08:24:39;;;;;;;7.97;1.92;;;11.80;98.30;;;;;;5138032;27;20325;-59
2023/03/24 08:27:06;;;;;;;12.82;2.45;;;11.80;98.40;;;;;;5137650;27;20038;-58
2023/03/24 08:29:35;;;;;;;9.57;2.03;;;11.90;97.70;;;;;;5137608;27;20414;-58
2023/03/24 08:32:01;;;;;;;12.30;2.13;;;11.90;97.60;;;;;;5137572;27;20027;-58
2023/03/24 08:34:27;;;;;;;11.90;2.35;;;12.00;99.20;;;;;;5136566;27;20046;-58
2023/03/24 08:36:53;;;;;;;11.13;1.77;;;12.10;97.00;;;;;;5137611;27;20307;-58
2023/03/24 08:39:19;;;;;;;7.85;1.80;;;12.30;93.10;;;;;;5120242;28;20104;-57
2023/03/24 08:41:45;;;;;;;10.30;1.60;;;12.30;95.30;;;;;;5137426;27;20039;-57
2023/03/24 08:44:12;;;;;;;9.90;2.00;;;12.30;93.40;;;;;;5137519;27;20042;-58
2023/03/24 08:46:39;;;;;;;9.52;1.60;;;12.30;91.90;;;;;;5137556;27;20031;-58
2023/03/24 08:49:05;;;;;;;9.38;1.63;;;12.40;91.20;;;;;;5137578;27;20306;-57
2023/03/24 08:51:31;;;;;;;11.63;1.83;;;12.50;85.20;;;;;;5137835;27;20039;-57
2023/03/24 08:53:57;;;;;;;7.47;1.60;;;12.70;83.70;;;;;;5120072;28;20035;-58
2023/03/24 08:56:24;;;;;;;12.55;1.77;;;13.10;75.70;;;;;;5137526;27;20031;-59
2023/03/24 08:58:52;;;;;;;8.07;1.80;;;13.30;59.20;;;;;;5137724;27;20023;-59
2023/03/24 09:01:19;;;;;;;12.70;1.92;;;13.00;61.20;;;;;;5136963;28;20074;-58
2023/03/24 09:03:45;;;;;;;9.93;1.55;;;12.90;68.10;;;;;;5138270;27;20028;-59
2023/03/24 09:06:12;;;;;;;11.13;2.03;;;12.90;74.20;;;;;;5137681;27;20038;-58
2023/03/24 09:08:39;;;;;;;7.13;1.40;;;12.80;72.90;;;;;;5138113;27;20051;-57
2023/03/24 09:11:06;;;;;;;5.88;1.40;;;12.80;80.10;;;;;;5137427;27;20035;-60
2023/03/24 09:13:32;;;;;;;9.02;1.50;;;12.90;75.40;;;;;;5136705;28;20039;-58
2023/03/24 09:16:01;;;;;;;8.25;1.45;;;12.80;71.40;;;;;;5137402;28;20042;-58
2023/03/24 09:18:28;;;;;;;7.55;1.60;;;12.80;72.90;;;;;;5137589;27;20288;-58
2023/03/24 09:20:54;;;;;;;8.43;1.85;;;12.90;71.60;;;;;;5137516;27;20341;-58
2023/03/24 09:23:20;;;;;;;9.45;2.03;;;12.70;70.80;;;;;;5136717;28;20035;-58
2023/03/24 09:25:51;;;;;;;10.52;1.70;;;12.90;71.30;;;;;;5136804;28;20411;-57
2023/03/24 09:28:17;;;;;;;8.63;2.10;;;13.10;58.30;;;;;;5137454;27;20088;-57
2023/03/24 09:30:43;;;;;;;12.35;2.33;;;13.00;64.70;;;;;;5136574;28;20035;-57
2023/03/24 09:33:08;;;;;;;9.75;1.75;;;12.70;75.10;;;;;;5137400;27;20016;-58
2023/03/24 09:35:35;;;;;;;10.00;2.10;;;12.80;80.50;;;;;;5136966;27;20024;-57
2023/03/24 09:38:01;;;;;;;9.68;1.73;;;12.90;71.20;;;;;;5136834;28;20269;-58
2023/03/24 09:40:32;;;;;;;9.18;1.60;;;12.70;74.20;;;;;;5137340;28;20051;-58
2023/03/24 09:43:11;;;;;;;11.52;1.95;;;12.90;76.00;;;;;;5137287;28;20080;-57
2023/03/24 09:45:48;;;;;;;8.35;1.75;;;12.90;74.40;;;;;;5137950;27;20031;-59
2023/03/24 09:48:33;;;;;;;11.60;2.05;;;13.20;70.70;;;;;;5139813;27;20062;-58
2023/03/24 09:51:23;;;;;;;8.65;1.77;;;13.40;61.60;;;;;;5140975;27;20027;-59
2023/03/24 09:54:21;;;;;;;7.20;1.45;;;13.60;60.10;;;;;;5141556;27;20023;-58
2023/03/24 09:56:48;;;;;;;6.88;1.50;;;13.50;54.40;;;;;;5114862;27;20070;-57
2023/03/24 09:59:20;;;;;;;9.10;2.10;;;13.50;56.20;;;;;;5140795;27;20023;-58
2023/03/24 10:01:47;;;;;;;11.30;2.13;;;13.60;51.80;;;;;;5140808;27;20019;-58
2023/03/24 10:04:25;;;;;;;7.60;1.73;;;14.10;43.70;;;;;;5140624;27;20395;-58
2023/03/24 10:07:05;;;;;;;11.10;1.60;;;14.40;39.20;;;;;;5139884;27;20362;-58
2023/03/24 10:09:34;;;;;;;8.52;1.77;;;14.10;25.90;;;;;;5140573;27;20064;-58
2023/03/24 10:12:17;;;;;;;10.40;2.17;;;14.10;29.50;;;;;;5139607;27;20088;-63
2023/03/24 10:14:51;;;;;;;;;;;14.30;24.40;;;;;;5140930;27;20054;-60
2023/03/24 10:17:26;;;;;;;9.20;1.60;;;14.70;5.70;;;;;;5139759;27;19921;-65
2023/03/24 10:20:15;;;;;;;6.57;1.65;;;14.90;1.00;;;;;;5140353;27;20023;-60
2023/03/24 10:22:58;;;;;;;9.48;1.80;;;15.00;1.00;;;;;;5139867;27;20023;-60
2023/03/24 10:25:50;;;;;;;10.50;1.88;;;14.40;1.00;;;;;;5139667;27;20084;-59
2023/03/24 10:28:40;;;;;;;5.00;1.67;;;14.10;3.60;;;;;;5122300;27;20023;-61
2023/03/24 10:31:12;;;;;;;7.38;1.63;;;13.90;3.10;;;;;;5139619;27;20031;-59
2023/03/24 10:33:43;;;;;;;5.65;1.70;;;13.50;11.50;;;;;;5140197;27;20023;-59
2023/03/24 10:36:17;;;;;;;8.90;1.88;;;13.50;15.60;;;;;;5140024;27;20335;-59
2023/03/24 10:38:43;;;;;;;6.32;1.50;;;13.50;23.90;;;;;;5140429;27;20038;-59
2023/03/24 10:41:18;;;;;;;7.97;1.83;;;13.40;25.50;;;;;;5139035;27;20043;-59
2023/03/24 10:43:46;;;;;;;7.13;1.50;;;13.40;24.50;;;;;;5139234;27;20015;-58
2023/03/24 10:46:15;;;;;;;8.02;1.42;;;13.50;22.80;;;;;;5139852;27;20034;-62
2023/03/24 10:48:51;;;;;;;12.73;2.10;;;13.40;41.60;;;;;;5139907;27;20135;-60
2023/03/24 10:51:19;;;;;;;9.02;2.15;;;13.20;60.80;;;;;;5139831;27;20035;-59
2023/03/24 10:53:47;;;;;;;10.18;1.35;;;12.80;93.50;;;;;;5139014;27;20035;-58
2023/03/24 10:56:44;;;;;;;5.93;1.27;;;12.40;99.90;;;;;;5138730;27;20416;-58
2023/03/24 10:59:31;;;;;;;8.13;1.85;;;11.80;99.90;;;;;;5139000;27;20031;-57
2023/03/24 11:02:22;;;;;;;5.72;1.63;;;11.30;99.90;;;;;;5139664;27;20031;-59
2023/03/24 11:05:11;;;;;;;5.95;1.40;;;11.10;99.90;;;;;;5139491;27;20019;-59
2023/03/24 11:07:40;;;;;;;8.43;1.50;;;11.10;99.90;;;;;;5139455;27;20031;-59
2023/03/24 11:10:14;;;;;;;5.80;1.60;;;10.80;99.90;;;;;;5139485;27;20343;-59
2023/03/24 11:13:01;;;;;;;4.78;1.15;;;10.70;99.90;;;;;;5139613;27;20027;-59
2023/03/24 11:15:29;;;;;;;6.10;1.75;;;10.80;99.90;;;;;;5139229;27;20027;-55
2023/03/24 11:18:05;;;;;;;5.03;1.50;;;11.40;99.90;;;;;;5139425;27;20055;-57
2023/03/24 11:20:39;;;;;;;7.03;1.60;;;11.90;99.90;;;;;;5139290;27;20053;-57
2023/03/24 11:23:53;;;;;;;6.60;1.52;;;11.80;99.90;;;;;;5138471;27;20080;-57
2023/03/24 11:26:36;;;;;;;7.00;1.90;;;11.40;99.90;;;;;;5120897;27;20054;-58
2023/03/24 11:29:19;;;;;;;8.10;2.47;;;11.30;99.90;;;;;;5139124;27;20038;-55
2023/03/24 11:32:04;;;;;;;8.27;2.17;;;11.10;99.90;;;;;;5139154;27;20039;-57
2023/03/24 11:34:41;;;;;;;9.18;2.58;;;11.10;99.90;;;;;;5138894;27;20088;-55
2023/03/24 11:37:21;;;;;;;8.95;2.03;;;10.90;99.90;;;;;;5138573;27;20031;-59
2023/03/24 11:40:10;;;;;;;11.05;2.28;;;10.80;99.90;;;;;;5138856;27;20019;-57
2023/03/24 11:42:44;;;;;;;7.03;1.83;;;10.60;99.90;;;;;;5138004;27;20114;-57
2023/03/24 11:45:20;;;;;;;5.07;1.15;;;10.40;99.90;;;;;;5138138;27;20031;-56
2023/03/24 11:47:48;;;;;;;4.90;1.20;;;10.40;99.90;;;;;;5138993;27;20035;-56
2023/03/24 11:50:22;;;;;;;3.28;0.95;;;10.50;99.90;;;;;;5138052;27;20307;-57
2023/03/24 11:53:03;;;;;;;2.65;0.60;;;10.80;99.90;;;;;;5138950;27;20318;-58
2023/03/24 11:56:04;;;;;;;5.32;1.08;;;11.50;99.90;;;;;;5138947;27;20134;-57
2023/03/24 11:58:49;;;;;;;3.88;1.05;;;12.50;99.90;;;;;;5137790;27;20123;-57
2023/03/24 12:01:20;;;;;;;3.45;0.80;;;13.70;99.90;;;;;;5138542;27;20153;-56
2023/03/24 12:03:52;;;;;;;3.90;1.30;;;14.20;99.90;;;;;;5120589;27;20027;-57
2023/03/24 12:06:41;;;;;;;6.38;1.42;;;13.70;99.90;;;;;;5138153;27;20034;-57
2023/03/24 12:09:17;;;;;;;3.38;1.30;;;13.10;99.90;;;;;;5137059;27;20047;-57
2023/03/24 12:11:51;;;;;;;8.52;1.55;;;13.20;99.90;;;;;;5138085;27;20063;-58
2023/03/24 12:14:35;;;;;;;9.63;1.60;;;13.10;99.90;;;;;;5138078;27;20123;-58
2023/03/24 12:17:10;;;;;;;5.65;1.60;;;13.30;99.90;;;;;;5137405;27;20031;-58
2023/03/24 12:19:43;;;;;;;6.78;1.50;;;13.80;99.90;;;;;;5138630;27;20027;-57
2023/03/24 12:22:26;;;;;;;6.70;1.10;;;14.90;99.90;;;;;;5138278;27;20031;-57
2023/03/24 12:24:52;;;;;;;7.90;1.27;;;15.10;90.60;;;;;;5138189;27;20038;-57
2023/03/24 12:27:33;;;;;;;6.68;1.67;;;14.80;92.00;;;;;;5138348;27;20027;-58
2023/03/24 12:30:05;;;;;;;7.22;1.40;;;15.50;94.70;;;;;;5138099;27;20023;-57
2023/03/24 12:33:07;;;;;;;6.05;1.73;;;16.50;89.80;;;;;;5138145;27;20385;-57
2023/03/24 12:35:57;;;;;;;11.15;2.28;;;15.90;69.70;;;;;;5104207;27;20049;-57
2023/03/24 12:38:34;;;;;;;5.38;1.70;;;15.00;91.30;;;;;;5137267;27;20085;-58
2023/03/24 12:41:31;;;;;;;5.80;2.67;;;15.00;80.70;;;;;;5137743;27;20115;-58
2023/03/24 12:44:31;;;;;;;5.65;1.58;;;15.30;69.00;;;;;;5138521;28;20084;-56
2023/03/24 12:47:02;;;;;;;5.70;1.45;;;15.40;61.30;;;;;;5136808;28;20043;-63
2023/03/24 12:50:04;;;;;;;5.50;1.37;;;16.10;66.60;;;;;;5137798;27;20299;-57
2023/03/24 12:52:49;;;;;;;5.13;1.20;;;16.30;44.40;;;;;;5137070;28;20283;-57
2023/03/24 12:55:42;;;;;;;7.10;1.35;;;16.60;41.20;;;;;;5136996;28;20294;-57
2023/03/24 12:58:40;;;;;;;5.85;1.60;;;16.50;46.70;;;;;;5137953;28;20038;-57
2023/03/24 13:01:28;;;;;;;4.78;1.10;;;16.30;37.80;;;;;;5137618;27;20402;-58
2023/03/24 13:04:37;;;;;;;5.25;1.17;;;15.80;42.50;;;;;;5137601;27;20024;-57
2023/03/24 13:07:13;;;;;;;3.83;0.88;;;16.50;32.70;;;;;;5124371;27;20043;-58
2023/03/24 13:10:05;;;;;;;4.93;1.20;;;16.00;37.80;;;;;;5137565;27;20032;-57
2023/03/24 13:12:43;;;;;;;7.60;1.23;;;15.30;47.40;;;;;;5137599;27;20048;-58
2023/03/24 13:15:12;;;;;;;4.55;1.10;;;15.10;54.00;;;;;;5137498;28;20439;-58
2023/03/24 13:17:57;;;;;;;4.97;1.05;;;15.70;6.10;;;;;;5137379;28;20119;-60
2023/03/24 13:20:45;;;;;;;4.40;1.15;;;15.20;11.40;;;;;;5138186;27;20039;-59
2023/03/24 13:23:32;;;;;;;5.38;1.40;;;15.00;33.00;;;;;;5141483;27;20023;-58
2023/03/24 13:25:58;;;;;;;6.25;1.08;;;15.50;11.60;;;;;;5141475;27;20291;-59
2023/03/24 13:28:33;;;;;;;6.25;1.38;;;16.20;1.00;;;;;;5141121;27;20023;-57